createdAt,value
2019-05-09T00:00:04.154Z,981.50
2019-05-09T00:01:04.177Z,981.54
2019-05-09T00:02:04.108Z,981.48
2019-05-09T00:03:04.081Z,981.53
2019-05-09T00:04:04.069Z,981.49
2019-05-09T00:05:04.059Z,981.50
2019-05-09T00:06:04.714Z,981.48
2019-05-09T00:07:04.113Z,981.43
2019-05-09T00:08:04.026Z,981.53
2019-05-09T00:09:04.015Z,981.51
2019-05-09T00:10:04.252Z,981.53
2019-05-09T00:11:03.991Z,981.51
2019-05-09T00:12:03.979Z,981.46
2019-05-09T00:13:04.040Z,981.40
2019-05-09T00:14:04.565Z,981.38
2019-05-09T00:15:04.651Z,981.33
2019-05-09T00:16:03.958Z,981.32
2019-05-09T00:17:03.983Z,981.39
2019-05-09T00:18:04.136Z,981.37
2019-05-09T00:19:03.974Z,981.37
2019-05-09T00:20:03.892Z,981.35
2019-05-09T00:21:04.218Z,981.37
2019-05-09T00:22:03.863Z,981.31
2019-05-09T00:23:03.853Z,981.28
2019-05-09T00:24:03.844Z,981.28
2019-05-09T00:25:03.921Z,981.29
2019-05-09T00:26:04.290Z,981.30
2019-05-09T00:27:04.035Z,981.29
2019-05-09T00:28:04.217Z,981.25
2019-05-09T00:29:03.943Z,981.33
2019-05-09T00:30:03.977Z,981.34
2019-05-09T00:31:03.840Z,981.41
2019-05-09T00:32:03.747Z,981.40
2019-05-09T00:33:03.882Z,981.38
2019-05-09T00:34:04.282Z,981.48
2019-05-09T00:35:04.066Z,981.52
2019-05-09T00:36:04.343Z,981.54
2019-05-09T00:37:03.764Z,981.56
2019-05-09T00:38:04.445Z,981.63
2019-05-09T00:39:04.143Z,981.50
2019-05-09T00:40:04.083Z,981.52
2019-05-09T00:41:03.903Z,981.52
2019-05-09T00:42:04.377Z,981.53
2019-05-09T00:43:04.108Z,981.49
2019-05-09T00:44:03.611Z,981.54
2019-05-09T00:45:04.227Z,981.51
2019-05-09T00:46:04.378Z,981.50
2019-05-09T00:47:04.245Z,981.58
2019-05-09T00:48:03.602Z,981.57
2019-05-09T00:49:05.047Z,981.53
2019-05-09T00:50:05.189Z,981.58
2019-05-09T00:51:03.655Z,981.54
2019-05-09T00:52:03.740Z,981.59
2019-05-09T00:53:03.515Z,981.53
2019-05-09T00:54:04.213Z,981.52
2019-05-09T00:55:03.991Z,981.50
2019-05-09T00:56:04.104Z,981.50
2019-05-09T00:57:03.467Z,981.57
2019-05-09T00:58:04.190Z,981.57
2019-05-09T00:59:04.234Z,981.55
2019-05-09T01:00:04.017Z,981.52
2019-05-09T01:01:04.292Z,981.48
2019-05-09T01:02:04.070Z,981.51
2019-05-09T01:03:03.685Z,981.55
2019-05-09T01:04:04.369Z,981.53
2019-05-09T01:05:04.230Z,981.56
2019-05-09T01:06:04.301Z,981.58
2019-05-09T01:07:03.702Z,981.55
2019-05-09T01:08:04.196Z,981.56
2019-05-09T01:09:04.176Z,981.55
2019-05-09T01:10:04.239Z,981.56
2019-05-09T01:11:11.686Z,981.66
2019-05-09T01:12:04.367Z,981.65
2019-05-09T01:13:03.727Z,981.64
2019-05-09T01:14:03.721Z,981.57
2019-05-09T01:15:03.526Z,981.65
2019-05-09T01:16:04.481Z,981.61
2019-05-09T01:17:04.233Z,981.59
2019-05-09T01:18:04.370Z,981.57
2019-05-09T01:19:03.710Z,981.59
2019-05-09T01:20:03.595Z,981.69
2019-05-09T01:21:03.984Z,981.66
2019-05-09T01:22:04.016Z,981.65
2019-05-09T01:23:03.556Z,981.62
2019-05-09T01:24:03.546Z,981.67
2019-05-09T01:26:13.489Z,981.69
2019-05-09T01:27:14.206Z,981.66
2019-05-09T01:28:13.967Z,981.66
2019-05-09T01:29:13.802Z,981.73
2019-05-09T01:30:13.523Z,981.67
2019-05-09T01:31:13.255Z,981.66
2019-05-09T01:32:14.411Z,981.76
2019-05-09T01:33:13.592Z,981.70
2019-05-09T01:34:13.330Z,981.73
2019-05-09T01:35:13.182Z,981.70
2019-05-09T01:36:14.375Z,981.67
2019-05-09T01:37:14.071Z,981.72
2019-05-09T01:38:14.194Z,981.72
2019-05-09T01:39:13.795Z,981.78
2019-05-09T01:40:13.229Z,981.67
2019-05-09T01:41:26.264Z,981.67
2019-05-09T01:42:13.764Z,981.75
2019-05-09T01:43:13.853Z,981.65
2019-05-09T01:44:13.413Z,981.71
2019-05-09T01:45:14.132Z,981.69
2019-05-09T01:46:14.277Z,981.66
2019-05-09T01:47:14.098Z,981.75
2019-05-09T01:48:13.945Z,981.72
2019-05-09T01:49:13.814Z,981.64
2019-05-09T01:50:14.027Z,981.74
2019-05-09T01:51:13.897Z,981.58
2019-05-09T01:52:13.776Z,981.67
2019-05-09T01:53:13.376Z,981.66
2019-05-09T01:54:13.266Z,981.68
2019-05-09T01:55:14.119Z,981.79
2019-05-09T01:56:13.996Z,981.71
2019-05-09T01:57:13.846Z,981.70
2019-05-09T01:58:13.883Z,981.78
2019-05-09T01:59:13.701Z,981.81
2019-05-09T02:00:13.237Z,981.77
2019-05-09T02:01:13.401Z,981.74
2019-05-09T02:02:14.108Z,981.78
2019-05-09T02:03:13.940Z,981.79
2019-05-09T02:04:13.683Z,981.74
2019-05-09T02:05:13.468Z,981.77
2019-05-09T02:06:13.627Z,981.73
2019-05-09T02:07:13.273Z,981.82
2019-05-09T02:08:14.065Z,981.80
2019-05-09T02:09:14.070Z,981.81
2019-05-09T02:10:13.931Z,981.80
2019-05-09T02:11:13.256Z,981.77
2019-05-09T02:12:13.960Z,981.82
2019-05-09T02:13:13.653Z,981.80
2019-05-09T02:14:13.496Z,981.87
2019-05-09T02:15:13.066Z,981.87
2019-05-09T02:16:13.994Z,981.86
2019-05-09T02:17:13.990Z,981.89
2019-05-09T02:18:13.739Z,981.93
2019-05-09T02:19:13.603Z,981.94
2019-05-09T02:20:13.666Z,981.87
2019-05-09T02:21:14.450Z,981.91
2019-05-09T02:22:13.086Z,981.85
2019-05-09T02:23:13.883Z,981.91
2019-05-09T02:24:13.892Z,981.82
2019-05-09T02:25:13.676Z,981.83
2019-05-09T02:26:13.625Z,981.94
2019-05-09T02:27:13.243Z,981.84
2019-05-09T02:28:14.040Z,981.96
2019-05-09T02:29:13.807Z,981.90
2019-05-09T02:30:15.135Z,981.86
2019-05-09T02:31:15.700Z,981.98
2019-05-09T02:32:14.170Z,982.04
2019-05-09T02:33:14.507Z,982.02
2019-05-09T02:34:14.931Z,981.99
2019-05-09T02:35:11.768Z,982.03
2019-05-09T02:36:11.688Z,981.95
2019-05-09T02:37:11.677Z,982.00
2019-05-09T02:38:11.671Z,982.03
2019-05-09T02:39:11.657Z,982.09
2019-05-09T02:40:11.647Z,982.20
2019-05-09T02:41:11.707Z,982.05
2019-05-09T02:42:14.226Z,982.16
2019-05-09T02:43:11.615Z,982.07
2019-05-09T02:44:11.604Z,982.13
2019-05-09T02:45:11.590Z,982.16
2019-05-09T02:46:11.589Z,982.20
2019-05-09T02:47:11.644Z,982.13
2019-05-09T02:48:11.558Z,982.23
2019-05-09T02:49:11.547Z,982.15
2019-05-09T02:50:11.539Z,982.17
2019-05-09T02:51:11.522Z,982.20
2019-05-09T02:52:11.512Z,982.13
2019-05-09T02:53:11.565Z,982.22
2019-05-09T02:54:11.492Z,982.14
2019-05-09T02:55:11.476Z,982.12
2019-05-09T02:56:11.466Z,982.16
2019-05-09T02:57:11.459Z,982.16
2019-05-09T02:58:11.450Z,982.06
2019-05-09T02:59:11.492Z,982.10
2019-05-09T03:00:11.431Z,982.10
2019-05-09T03:01:11.409Z,982.08
2019-05-09T03:02:11.400Z,982.06
2019-05-09T03:03:11.389Z,982.16
2019-05-09T03:04:11.375Z,982.03
2019-05-09T03:05:11.444Z,982.13
2019-05-09T03:06:11.354Z,982.11
2019-05-09T03:07:11.349Z,982.09
2019-05-09T03:08:11.335Z,982.08
2019-05-09T03:09:11.323Z,982.14
2019-05-09T03:10:11.309Z,982.09
2019-05-09T03:11:11.365Z,982.08
2019-05-09T03:12:26.529Z,982.12
2019-05-09T03:13:12.273Z,982.06
2019-05-09T03:14:11.272Z,982.09
2019-05-09T03:15:11.254Z,982.02
2019-05-09T03:16:11.244Z,982.05
2019-05-09T03:17:11.293Z,982.03
2019-05-09T03:18:11.219Z,982.04
2019-05-09T03:19:11.211Z,982.04
2019-05-09T03:20:11.198Z,982.12
2019-05-09T03:21:11.186Z,982.05
2019-05-09T03:22:11.174Z,982.11
2019-05-09T03:23:11.249Z,982.09
2019-05-09T03:24:11.161Z,982.09
2019-05-09T03:25:11.144Z,982.19
2019-05-09T03:26:11.137Z,982.22
2019-05-09T03:27:11.130Z,982.16
2019-05-09T03:28:11.106Z,982.14
2019-05-09T03:29:11.159Z,982.18
2019-05-09T03:30:12.267Z,982.10
2019-05-09T03:31:11.086Z,982.13
2019-05-09T03:32:11.072Z,982.17
2019-05-09T03:33:11.054Z,982.17
2019-05-09T03:34:11.045Z,982.15
2019-05-09T03:35:11.114Z,982.18
2019-05-09T03:36:11.019Z,982.22
2019-05-09T03:37:11.006Z,982.20
2019-05-09T03:38:10.996Z,982.15
2019-05-09T03:39:10.990Z,982.11
2019-05-09T03:40:10.975Z,982.14
2019-05-09T03:41:11.040Z,982.14
2019-05-09T03:42:10.950Z,982.10
2019-05-09T03:43:10.939Z,982.07
2019-05-09T03:44:10.932Z,982.09
2019-05-09T03:45:10.917Z,982.10
2019-05-09T03:46:10.903Z,982.09
2019-05-09T03:47:10.966Z,982.15
2019-05-09T03:48:10.882Z,982.21
2019-05-09T03:49:10.877Z,982.15
2019-05-09T03:50:10.861Z,982.21
2019-05-09T03:51:10.855Z,982.23
2019-05-09T03:52:10.837Z,982.25
2019-05-09T03:53:10.891Z,982.26
2019-05-09T03:54:10.815Z,982.21
2019-05-09T03:55:10.804Z,982.20
2019-05-09T03:56:10.793Z,982.21
2019-05-09T03:57:10.780Z,982.21
2019-05-09T03:58:10.769Z,982.21
2019-05-09T03:59:10.831Z,982.21
2019-05-09T04:00:10.747Z,982.20
2019-05-09T04:01:11.043Z,982.23
2019-05-09T04:02:10.730Z,982.21
2019-05-09T04:03:10.717Z,982.23
2019-05-09T04:04:10.703Z,982.16
2019-05-09T04:05:10.759Z,982.22
2019-05-09T04:06:10.677Z,982.19
2019-05-09T04:07:10.672Z,982.20
2019-05-09T04:08:10.656Z,982.24
2019-05-09T04:09:10.644Z,982.26
2019-05-09T04:10:10.635Z,982.25
2019-05-09T04:11:10.694Z,982.26
2019-05-09T04:12:10.612Z,982.29
2019-05-09T04:13:11.125Z,982.28
2019-05-09T04:14:10.592Z,982.29
2019-05-09T04:15:10.582Z,982.30
2019-05-09T04:16:10.565Z,982.19
2019-05-09T04:17:10.626Z,982.26
2019-05-09T04:18:10.545Z,982.26
2019-05-09T04:19:10.533Z,982.24
2019-05-09T04:20:10.529Z,982.31
2019-05-09T04:21:10.509Z,982.28
2019-05-09T04:22:10.497Z,982.31
2019-05-09T04:23:10.567Z,982.31
2019-05-09T04:24:10.477Z,982.44
2019-05-09T04:25:10.462Z,982.41
2019-05-09T04:26:10.457Z,982.44
2019-05-09T04:27:10.447Z,982.44
2019-05-09T04:28:10.431Z,982.50
2019-05-09T04:29:10.480Z,982.41
2019-05-09T04:30:10.409Z,982.52
2019-05-09T04:31:10.407Z,982.49
2019-05-09T04:32:10.387Z,982.51
2019-05-09T04:33:10.372Z,982.48
2019-05-09T04:34:10.362Z,982.51
2019-05-09T04:35:10.423Z,982.55
2019-05-09T04:36:10.341Z,982.46
2019-05-09T04:37:12.318Z,982.49
2019-05-09T04:38:10.320Z,982.47
2019-05-09T04:39:12.764Z,982.53
2019-05-09T04:40:11.370Z,982.52
2019-05-09T04:41:10.284Z,982.52
2019-05-09T04:42:10.270Z,982.66
2019-05-09T04:43:16.607Z,982.60
2019-05-09T04:44:16.835Z,982.59
2019-05-09T04:45:11.235Z,982.56
2019-05-09T04:46:13.011Z,982.57
2019-05-09T04:47:11.216Z,982.58
2019-05-09T04:48:13.244Z,982.53
2019-05-09T04:49:11.195Z,982.59
2019-05-09T04:50:10.183Z,982.53
2019-05-09T04:51:10.169Z,982.60
2019-05-09T04:52:10.224Z,982.58
2019-05-09T04:53:10.148Z,982.63
2019-05-09T04:54:10.133Z,982.67
2019-05-09T04:55:10.126Z,982.64
2019-05-09T04:56:10.114Z,982.63
2019-05-09T04:57:10.106Z,982.64
2019-05-09T04:58:10.158Z,982.66
2019-05-09T04:59:10.075Z,982.69
2019-05-09T05:00:10.206Z,982.66
2019-05-09T05:01:10.061Z,982.77
2019-05-09T05:02:10.043Z,982.62
2019-05-09T05:03:10.034Z,982.71
2019-05-09T05:04:10.088Z,982.73
2019-05-09T05:05:10.011Z,982.71
2019-05-09T05:06:09.997Z,982.74
2019-05-09T05:07:09.995Z,982.73
2019-05-09T05:08:09.985Z,982.79
2019-05-09T05:09:09.969Z,982.78
2019-05-09T05:10:10.019Z,982.70
2019-05-09T05:11:09.942Z,982.79
2019-05-09T05:12:09.936Z,982.69
2019-05-09T05:13:23.072Z,982.77
2019-05-09T05:14:10.912Z,982.68
2019-05-09T05:15:09.910Z,982.67
2019-05-09T05:16:09.951Z,982.68
2019-05-09T05:17:11.333Z,982.65
2019-05-09T05:18:09.865Z,982.60
2019-05-09T05:19:09.853Z,982.61
2019-05-09T05:20:09.844Z,982.68
2019-05-09T05:21:09.832Z,982.69
2019-05-09T05:22:09.889Z,982.61
2019-05-09T05:23:09.808Z,982.69
2019-05-09T05:24:09.798Z,982.58
2019-05-09T05:25:09.791Z,982.55
2019-05-09T05:26:09.771Z,982.52
2019-05-09T05:27:09.767Z,982.57
2019-05-09T05:28:09.811Z,982.45
2019-05-09T05:29:09.737Z,982.58
2019-05-09T05:30:09.728Z,982.49
2019-05-09T05:31:09.718Z,982.54
2019-05-09T05:32:09.721Z,982.54
2019-05-09T05:33:09.720Z,982.55
2019-05-09T05:34:09.747Z,982.46
2019-05-09T05:35:09.675Z,982.54
2019-05-09T05:36:09.663Z,982.49
2019-05-09T05:37:09.647Z,982.48
2019-05-09T05:38:09.647Z,982.47
2019-05-09T05:39:09.634Z,982.49
2019-05-09T05:40:09.678Z,982.54
2019-05-09T05:41:09.603Z,982.57
2019-05-09T05:42:09.591Z,982.54
2019-05-09T05:43:09.584Z,982.51
2019-05-09T05:44:09.580Z,982.50
2019-05-09T05:45:10.545Z,982.53
2019-05-09T05:46:09.611Z,982.57
2019-05-09T05:47:09.536Z,982.56
2019-05-09T05:48:09.526Z,982.59
2019-05-09T05:49:09.514Z,982.59
2019-05-09T05:50:09.503Z,982.57
2019-05-09T05:51:09.491Z,982.63
2019-05-09T05:52:09.546Z,982.52
2019-05-09T05:53:09.468Z,982.51
2019-05-09T05:54:09.457Z,982.49
2019-05-09T05:55:09.444Z,982.50
2019-05-09T05:56:09.432Z,982.47
2019-05-09T05:57:09.423Z,982.51
2019-05-09T05:58:09.477Z,982.49
2019-05-09T05:59:09.401Z,982.52
2019-05-09T06:00:09.388Z,982.49
2019-05-09T06:01:09.377Z,982.50
2019-05-09T06:02:09.368Z,982.50
2019-05-09T06:03:09.359Z,982.55
2019-05-09T06:04:09.419Z,982.57
2019-05-09T06:05:09.335Z,982.59
2019-05-09T06:06:09.330Z,982.52
2019-05-09T06:07:09.347Z,982.54
2019-05-09T06:09:43.097Z,982.56
2019-05-09T06:10:19.067Z,982.59
2019-05-09T06:11:19.057Z,982.59
2019-05-09T06:12:19.046Z,982.59
2019-05-09T06:13:19.034Z,982.72
2019-05-09T06:14:19.020Z,982.65
2019-05-09T06:15:19.076Z,982.66
2019-05-09T06:16:22.187Z,982.63
2019-05-09T06:17:18.985Z,982.67
2019-05-09T06:18:18.976Z,982.60
2019-05-09T06:19:18.965Z,982.64
2019-05-09T06:20:18.953Z,982.68
2019-05-09T06:21:19.008Z,982.74
2019-05-09T06:22:18.932Z,982.81
2019-05-09T06:23:18.928Z,982.79
2019-05-09T06:24:18.907Z,982.83
2019-05-09T06:25:20.819Z,982.81
2019-05-09T06:26:19.045Z,982.82
2019-05-09T06:27:18.937Z,982.78
2019-05-09T06:28:18.868Z,982.76
2019-05-09T06:29:18.852Z,982.77
2019-05-09T06:30:18.841Z,982.88
2019-05-09T06:31:18.833Z,982.80
2019-05-09T06:32:19.063Z,982.76
2019-05-09T06:33:18.874Z,982.80
2019-05-09T06:34:19.093Z,982.84
2019-05-09T06:35:18.783Z,982.72
2019-05-09T06:36:19.019Z,982.78
2019-05-09T06:37:18.765Z,982.76
2019-05-09T06:38:18.973Z,982.82
2019-05-09T06:39:18.813Z,982.88
2019-05-09T06:40:21.399Z,982.78
2019-05-09T06:41:18.713Z,982.76
2019-05-09T06:42:18.795Z,982.83
2019-05-09T06:43:18.694Z,982.80
2019-05-09T06:44:20.734Z,982.73
2019-05-09T06:45:18.733Z,982.80
2019-05-09T06:46:18.684Z,982.76
2019-05-09T06:47:18.689Z,982.76
2019-05-09T06:48:18.633Z,982.81
2019-05-09T06:49:27.506Z,982.70
2019-05-09T06:50:19.677Z,982.70
2019-05-09T06:51:21.257Z,982.83
2019-05-09T06:52:18.590Z,982.81
2019-05-09T06:53:18.576Z,982.80
2019-05-09T06:54:18.566Z,982.83
2019-05-09T06:55:18.567Z,982.81
2019-05-09T06:56:18.605Z,982.88
2019-05-09T06:57:18.811Z,982.84
2019-05-09T06:58:18.532Z,982.77
2019-05-09T06:59:19.120Z,982.83
2019-05-09T07:00:18.497Z,982.83
2019-05-09T07:01:18.500Z,982.77
2019-05-09T07:02:18.542Z,982.77
2019-05-09T07:03:18.578Z,982.82
2019-05-09T07:04:18.469Z,982.89
2019-05-09T07:05:18.438Z,982.79
2019-05-09T07:06:18.431Z,982.86
2019-05-09T07:07:18.419Z,982.94
2019-05-09T07:08:18.472Z,982.90
2019-05-09T07:09:18.398Z,982.91
2019-05-09T07:10:18.390Z,982.94
2019-05-09T07:11:19.161Z,982.98
2019-05-09T07:12:18.359Z,983.00
2019-05-09T07:13:18.373Z,982.99
2019-05-09T07:14:28.362Z,982.88
2019-05-09T07:15:19.328Z,983.01
2019-05-09T07:16:18.800Z,983.01
2019-05-09T07:17:18.696Z,982.92
2019-05-09T07:18:18.425Z,982.94
2019-05-09T07:19:18.278Z,982.92
2019-05-09T07:20:18.443Z,982.93
2019-05-09T07:21:19.014Z,982.93
2019-05-09T07:22:18.629Z,982.88
2019-05-09T07:23:18.233Z,982.86
2019-05-09T07:24:18.555Z,982.84
2019-05-09T07:25:18.715Z,982.83
2019-05-09T07:26:18.265Z,982.87
2019-05-09T07:27:18.187Z,982.83
2019-05-09T07:28:18.177Z,982.86
2019-05-09T07:29:18.171Z,982.74
2019-05-09T07:30:18.166Z,982.83
2019-05-09T07:31:18.160Z,982.87
2019-05-09T07:32:18.288Z,982.87
2019-05-09T07:33:19.249Z,982.87
2019-05-09T07:34:18.527Z,982.85
2019-05-09T07:35:18.665Z,982.81
2019-05-09T07:36:18.894Z,982.80
2019-05-09T07:37:18.667Z,982.82
2019-05-09T07:38:18.142Z,982.66
2019-05-09T07:39:18.050Z,982.75
2019-05-09T07:40:18.347Z,982.76
2019-05-09T07:41:18.046Z,982.74
2019-05-09T07:42:18.203Z,982.66
2019-05-09T07:43:18.160Z,982.74
2019-05-09T07:44:18.414Z,982.69
2019-05-09T07:45:18.120Z,982.73
2019-05-09T07:46:17.975Z,982.65
2019-05-09T07:47:17.958Z,982.76
2019-05-09T07:48:18.148Z,982.83
2019-05-09T07:49:17.953Z,982.80
2019-05-09T07:50:18.907Z,982.66
2019-05-09T07:51:18.144Z,982.68
2019-05-09T07:52:18.553Z,982.71
2019-05-09T07:53:17.900Z,982.73
2019-05-09T07:54:24.846Z,982.68
2019-05-09T07:55:18.934Z,982.72
2019-05-09T07:56:18.647Z,982.75
2019-05-09T07:57:18.274Z,982.78
2019-05-09T07:58:18.661Z,982.77
2019-05-09T07:59:18.175Z,982.80
2019-05-09T08:00:18.398Z,982.77
2019-05-09T08:01:19.009Z,982.76
2019-05-09T08:02:17.806Z,982.62
2019-05-09T08:03:18.183Z,982.69
2019-05-09T08:04:18.344Z,982.65
2019-05-09T08:05:17.766Z,982.74
2019-05-09T08:06:18.502Z,982.74
2019-05-09T08:07:17.801Z,982.71
2019-05-09T08:08:18.567Z,982.73
2019-05-09T08:09:18.705Z,982.62
2019-05-09T08:10:17.696Z,982.73
2019-05-09T08:11:18.125Z,982.70
2019-05-09T08:12:18.079Z,982.64
2019-05-09T08:13:21.195Z,982.74
2019-05-09T08:14:17.842Z,982.65
2019-05-09T08:15:20.146Z,982.66
2019-05-09T08:16:18.663Z,982.67
2019-05-09T08:17:18.165Z,982.66
2019-05-09T08:18:17.616Z,982.72
2019-05-09T08:19:18.161Z,982.72
2019-05-09T08:20:17.659Z,982.68
2019-05-09T08:21:18.209Z,982.78
2019-05-09T08:22:24.592Z,982.76
2019-05-09T08:23:18.554Z,982.77
2019-05-09T08:24:18.343Z,982.74
2019-05-09T08:25:18.334Z,982.73
2019-05-09T08:26:18.880Z,982.77
2019-05-09T08:27:17.691Z,982.84
2019-05-09T08:28:19.937Z,982.70
2019-05-09T08:29:19.950Z,982.80
2019-05-09T08:30:18.101Z,982.82
2019-05-09T08:31:17.941Z,982.78
2019-05-09T08:32:18.124Z,982.80
2019-05-09T08:33:18.443Z,982.81
2019-05-09T08:34:18.697Z,982.68
2019-05-09T08:35:18.327Z,982.71
2019-05-09T08:36:18.030Z,982.81
2019-05-09T08:37:17.666Z,982.74
2019-05-09T08:38:17.965Z,982.77
2019-05-09T08:39:20.184Z,982.72
2019-05-09T08:40:18.356Z,982.71
2019-05-09T08:41:18.583Z,982.69
2019-05-09T08:42:17.999Z,982.75
2019-05-09T08:43:19.544Z,982.67
2019-05-09T08:44:18.643Z,982.70
2019-05-09T08:45:27.380Z,982.71
2019-05-09T08:46:18.418Z,982.73
2019-05-09T08:47:18.483Z,982.72
2019-05-09T08:48:18.391Z,982.79
2019-05-09T08:49:18.248Z,982.79
2019-05-09T08:50:17.676Z,982.71
2019-05-09T08:51:17.986Z,982.71
2019-05-09T08:52:19.790Z,982.71
2019-05-09T08:53:18.799Z,982.71
2019-05-09T08:54:18.421Z,982.72
2019-05-09T08:55:17.534Z,982.70
2019-05-09T08:56:17.813Z,982.72
2019-05-09T08:57:18.205Z,982.63
2019-05-09T08:58:19.556Z,982.67
2019-05-09T08:59:20.014Z,982.83
2019-05-09T09:00:18.877Z,982.72
2019-05-09T09:01:27.225Z,982.78
2019-05-09T09:02:21.864Z,982.77
2019-05-09T09:03:18.511Z,982.78
2019-05-09T09:04:18.927Z,982.85
2019-05-09T09:05:18.733Z,982.80
2019-05-09T09:06:18.340Z,982.79
2019-05-09T09:07:18.914Z,982.73
2019-05-09T09:08:18.310Z,982.78
2019-05-09T09:09:17.989Z,982.79
2019-05-09T09:10:18.629Z,982.87
2019-05-09T09:11:18.711Z,982.70
2019-05-09T09:12:27.310Z,982.80
2019-05-09T09:13:18.062Z,982.79
2019-05-09T09:14:18.474Z,982.81
2019-05-09T09:15:17.980Z,982.89
2019-05-09T09:16:21.550Z,982.72
2019-05-09T09:17:18.744Z,982.75
2019-05-09T09:18:17.951Z,982.79
2019-05-09T09:19:17.902Z,982.86
2019-05-09T09:20:18.217Z,982.73
2019-05-09T09:21:18.353Z,982.72
2019-05-09T09:22:18.014Z,982.69
2019-05-09T09:23:18.052Z,982.68
2019-05-09T09:24:17.715Z,982.85
2019-05-09T09:25:18.358Z,982.75
2019-05-09T09:26:18.382Z,982.72
2019-05-09T09:27:18.225Z,982.66
2019-05-09T09:28:18.256Z,982.72
2019-05-09T09:29:17.845Z,982.70
2019-05-09T09:30:24.170Z,982.68
2019-05-09T09:31:18.150Z,982.64
2019-05-09T09:32:18.911Z,982.66
2019-05-09T09:33:17.603Z,982.63
2019-05-09T09:34:18.122Z,982.59
2019-05-09T09:35:18.637Z,982.71
2019-05-09T09:36:17.849Z,982.66
2019-05-09T09:37:18.505Z,982.69
2019-05-09T09:38:17.691Z,982.62
2019-05-09T09:39:18.498Z,982.70
2019-05-09T09:40:17.666Z,982.61
2019-05-09T09:41:18.202Z,982.69
2019-05-09T09:42:19.962Z,982.68
2019-05-09T09:43:17.636Z,982.72
2019-05-09T09:44:18.242Z,982.75
2019-05-09T09:45:18.407Z,982.62
2019-05-09T09:46:18.170Z,982.70
2019-05-09T09:47:22.795Z,982.69
2019-05-09T09:48:18.195Z,982.68
2019-05-09T09:49:18.083Z,982.62
2019-05-09T09:50:17.756Z,982.58
2019-05-09T09:51:18.566Z,982.64
2019-05-09T09:52:18.764Z,982.67
2019-05-09T09:53:18.469Z,982.60
2019-05-09T09:54:18.817Z,982.66
2019-05-09T09:55:18.479Z,982.77
2019-05-09T09:56:18.181Z,982.93
2019-05-09T09:57:18.998Z,982.80
2019-05-09T09:58:19.063Z,982.82
2019-05-09T09:59:18.867Z,982.84
2019-05-09T10:00:18.089Z,982.91
2019-05-09T10:01:18.063Z,982.68
2019-05-09T10:02:16.425Z,982.96
2019-05-09T10:03:18.619Z,982.90
2019-05-09T10:04:23.569Z,982.96
2019-05-09T10:05:18.409Z,983.00
2019-05-09T10:06:16.380Z,982.60
2019-05-09T10:07:18.851Z,983.00
2019-05-09T10:08:18.131Z,982.96
2019-05-09T10:09:17.463Z,983.03
2019-05-09T10:10:18.428Z,982.99
2019-05-09T10:11:17.977Z,982.96
2019-05-09T10:12:18.165Z,982.94
2019-05-09T10:13:18.436Z,982.98
2019-05-09T10:14:18.503Z,983.04
2019-05-09T10:15:18.755Z,983.06
2019-05-09T10:16:26.604Z,982.71
2019-05-09T10:17:17.995Z,982.75
2019-05-09T10:18:18.246Z,983.14
2019-05-09T10:19:18.408Z,982.75
2019-05-09T10:20:18.195Z,982.73
2019-05-09T10:21:16.214Z,982.81
2019-05-09T10:22:23.458Z,982.77
2019-05-09T10:23:18.974Z,982.77
2019-05-09T10:24:17.515Z,982.83
2019-05-09T10:25:18.290Z,982.92
2019-05-09T10:26:17.797Z,982.74
2019-05-09T10:27:18.540Z,982.94
2019-05-09T10:28:21.325Z,982.70
2019-05-09T10:29:17.786Z,982.75
2019-05-09T10:30:18.035Z,983.04
2019-05-09T10:31:16.105Z,983.00
2019-05-09T10:32:18.174Z,983.02
2019-05-09T10:33:17.540Z,983.06
2019-05-09T10:34:17.731Z,982.97
2019-05-09T10:35:17.741Z,982.88
2019-05-09T10:36:16.045Z,983.01
2019-05-09T10:37:18.343Z,982.68
2019-05-09T10:38:18.086Z,983.04
2019-05-09T10:39:18.594Z,982.99
2019-05-09T10:40:16.004Z,983.05
2019-05-09T10:41:16.052Z,982.72
2019-05-09T10:42:18.637Z,982.74
2019-05-09T10:43:30.712Z,982.77
2019-05-09T10:44:18.027Z,983.04
2019-05-09T10:45:18.022Z,983.09
2019-05-09T10:46:19.096Z,982.97
2019-05-09T10:47:15.990Z,982.96
2019-05-09T10:48:15.930Z,982.99
2019-05-09T10:49:15.904Z,982.97
2019-05-09T10:50:18.378Z,982.94
2019-05-09T10:51:15.885Z,982.85
2019-05-09T10:52:17.999Z,982.90
2019-05-09T10:53:18.010Z,982.83
2019-05-09T10:54:18.366Z,982.85
2019-05-09T10:55:17.942Z,982.52
2019-05-09T10:56:18.394Z,982.69
2019-05-09T10:57:15.816Z,982.63
2019-05-09T10:58:15.811Z,982.90
2019-05-09T10:59:17.657Z,982.85
2019-05-09T11:00:18.284Z,982.78
2019-05-09T11:01:18.210Z,982.85
2019-05-09T11:02:17.518Z,982.40
2019-05-09T11:03:17.988Z,982.52
2019-05-09T11:04:17.877Z,982.47
2019-05-09T11:05:18.270Z,982.43
2019-05-09T11:06:18.001Z,982.46
2019-05-09T11:07:18.100Z,982.66
2019-05-09T11:08:18.338Z,982.82
2019-05-09T11:09:18.027Z,982.63
2019-05-09T11:10:25.959Z,982.42
2019-05-09T11:11:18.377Z,982.85
2019-05-09T11:12:17.885Z,982.55
2019-05-09T11:13:18.021Z,982.56
2019-05-09T11:14:29.671Z,982.89
2019-05-09T11:15:17.761Z,982.49
2019-05-09T11:16:18.037Z,982.51
2019-05-09T11:17:20.893Z,982.44
2019-05-09T11:18:18.544Z,982.47
2019-05-09T11:19:18.163Z,982.43
2019-05-09T11:20:15.563Z,982.45
2019-05-09T11:21:15.574Z,982.45
2019-05-09T11:22:18.162Z,982.49
2019-05-09T11:23:15.602Z,982.51
2019-05-09T11:24:15.531Z,982.43
2019-05-09T11:25:15.510Z,982.42
2019-05-09T11:26:17.684Z,982.44
2019-05-09T11:27:15.500Z,982.41
2019-05-09T11:28:17.874Z,982.44
2019-05-09T11:29:15.525Z,982.46
2019-05-09T11:30:17.531Z,982.40
2019-05-09T11:31:18.045Z,982.46
2019-05-09T11:32:17.762Z,982.44
2019-05-09T11:33:15.420Z,982.42
2019-05-09T11:34:15.407Z,982.43
2019-05-09T11:35:17.575Z,982.39
2019-05-09T11:36:20.837Z,982.66
2019-05-09T11:37:16.377Z,982.75
2019-05-09T11:38:29.437Z,982.69
2019-05-09T11:39:34.912Z,982.44
2019-05-09T11:40:16.401Z,982.65
2019-05-09T11:41:18.825Z,982.35
2019-05-09T11:42:17.697Z,982.44
2019-05-09T11:43:17.952Z,982.44
2019-05-09T11:44:15.299Z,982.36
2019-05-09T11:45:17.740Z,982.80
2019-05-09T11:46:17.720Z,982.72
2019-05-09T11:47:31.450Z,982.81
2019-05-09T11:48:18.539Z,982.77
2019-05-09T11:49:17.857Z,982.37
2019-05-09T11:50:15.228Z,982.83
2019-05-09T11:51:18.244Z,982.26
2019-05-09T11:52:18.342Z,982.27
2019-05-09T11:53:17.541Z,982.39
2019-05-09T11:54:17.210Z,982.29
2019-05-09T11:55:28.485Z,982.41
2019-05-09T11:56:17.938Z,982.31
2019-05-09T11:57:15.150Z,982.34
2019-05-09T11:58:15.208Z,982.41
2019-05-09T11:59:15.130Z,982.29
2019-05-09T12:00:15.124Z,982.34
2019-05-09T12:01:15.107Z,982.36
2019-05-09T12:02:15.099Z,982.34
2019-05-09T12:03:15.084Z,982.34
2019-05-09T12:04:15.141Z,982.25
2019-05-09T12:05:15.072Z,982.33
2019-05-09T12:06:16.176Z,982.31
2019-05-09T12:07:17.667Z,982.32
2019-05-09T12:08:17.574Z,982.29
2019-05-09T12:09:15.126Z,982.31
2019-05-09T12:10:15.086Z,982.29
2019-05-09T12:11:17.856Z,982.37
2019-05-09T12:12:14.984Z,982.35
2019-05-09T12:13:14.971Z,982.30
2019-05-09T12:14:14.962Z,982.33
2019-05-09T12:15:14.959Z,982.32
2019-05-09T12:16:15.005Z,982.24
2019-05-09T12:17:14.927Z,982.30
2019-05-09T12:18:14.914Z,982.32
2019-05-09T12:19:14.902Z,982.34
2019-05-09T12:20:14.897Z,982.30
2019-05-09T12:21:14.879Z,982.24
2019-05-09T12:22:14.932Z,982.28
2019-05-09T12:23:14.857Z,982.36
2019-05-09T12:24:14.845Z,982.34
2019-05-09T12:25:14.834Z,982.33
2019-05-09T12:26:14.824Z,982.38
2019-05-09T12:27:14.813Z,982.33
2019-05-09T12:28:14.872Z,982.31
2019-05-09T12:29:14.795Z,982.36
2019-05-09T12:30:14.804Z,982.32